sensor_id;sensor_type;location;lat;lon;timestamp;pressure;altitude;pressure_sealevel;temperature;humidity
4598;BME280;62772;48.646;8.906;2023-04-08T00:04:24;96467.72;;;5.92;100.00
4598;BME280;62772;48.646;8.906;2023-04-08T00:09:25;96475.16;;;6.29;100.00
4598;BME280;62772;48.646;8.906;2023-04-08T00:14:25;96481.41;;;5.59;100.00
4598;BME280;62772;48.646;8.906;2023-04-08T00:19:26;96484.69;;;5.41;100.00
4598;BME280;62772;48.646;8.906;2023-04-08T00:24:26;96494.00;;;5.33;100.00
4598;BME280;62772;48.646;8.906;2023-04-08T00:29:27;96495.84;;;5.38;100.00
4598;BME280;62772;48.646;8.906;2023-04-08T00:34:28;96498.22;;;5.34;100.00
4598;BME280;62772;48.646;8.906;2023-04-08T00:39:28;96495.84;;;5.38;100.00
4598;BME280;62772;48.646;8.906;2023-04-08T00:44:29;96501.66;;;5.30;100.00
4598;BME280;62772;48.646;8.906;2023-04-08T00:49:30;96498.44;;;5.48;100.00
4598;BME280;62772;48.646;8.906;2023-04-08T00:54:30;96501.13;;;5.33;100.00
4598;BME280;62772;48.646;8.906;2023-04-08T00:59:31;96502.50;;;5.20;100.00
4598;BME280;62772;48.646;8.906;2023-04-08T01:09:53;96496.38;;;5.35;100.00
4598;BME280;62772;48.646;8.906;2023-04-08T01:15:01;96494.81;;;5.29;100.00
4598;BME280;62772;48.646;8.906;2023-04-08T01:20:03;96498.41;;;5.53;100.00
4598;BME280;62772;48.646;8.906;2023-04-08T01:25:09;96498.66;;;5.52;100.00
4598;BME280;62772;48.646;8.906;2023-04-08T01:30:13;96505.34;;;5.39;100.00
4598;BME280;62772;48.646;8.906;2023-04-08T01:35:14;96502.91;;;5.53;100.00
4598;BME280;62772;48.646;8.906;2023-04-08T01:40:17;96500.41;;;5.17;100.00
4598;BME280;62772;48.646;8.906;2023-04-08T01:45:18;96500.88;;;5.39;100.00
4598;BME280;62772;48.646;8.906;2023-04-08T01:50:20;96488.69;;;5.33;100.00
4598;BME280;62772;48.646;8.906;2023-04-08T01:55:22;96492.47;;;5.12;100.00
4598;BME280;62772;48.646;8.906;2023-04-08T02:00:25;96489.81;;;5.22;100.00
4598;BME280;62772;48.646;8.906;2023-04-08T02:05:27;96499.38;;;5.13;100.00
4598;BME280;62772;48.646;8.906;2023-04-08T02:10:27;96494.78;;;5.34;100.00
4598;BME280;62772;48.646;8.906;2023-04-08T02:15:33;96482.78;;;5.52;100.00
4598;BME280;62772;48.646;8.906;2023-04-08T02:20:43;96490.75;;;5.47;100.00
4598;BME280;62772;48.646;8.906;2023-04-08T02:25:47;96493.44;;;5.41;100.00
4598;BME280;62772;48.646;8.906;2023-04-08T02:30:50;96497.63;;;5.53;100.00
4598;BME280;62772;48.646;8.906;2023-04-08T02:35:52;96496.66;;;5.33;100.00
4598;BME280;62772;48.646;8.906;2023-04-08T02:40:54;96500.88;;;5.29;100.00
4598;BME280;62772;48.646;8.906;2023-04-08T02:45:55;96501.63;;;5.45;100.00
4598;BME280;62772;48.646;8.906;2023-04-08T02:50:55;96496.84;;;5.42;100.00
4598;BME280;62772;48.646;8.906;2023-04-08T02:55:56;96488.53;;;4.99;100.00
4598;BME280;62772;48.646;8.906;2023-04-08T03:00:57;96495.97;;;4.97;100.00
4598;BME280;62772;48.646;8.906;2023-04-08T03:05:57;96498.09;;;4.89;100.00
4598;BME280;62772;48.646;8.906;2023-04-08T03:10:58;96499.13;;;5.04;100.00
4598;BME280;62772;48.646;8.906;2023-04-08T03:15:58;96499.31;;;5.23;100.00
4598;BME280;62772;48.646;8.906;2023-04-08T03:20:59;96498.47;;;5.33;100.00
4598;BME280;62772;48.646;8.906;2023-04-08T03:26:00;96500.13;;;5.23;100.00
4598;BME280;62772;48.646;8.906;2023-04-08T03:31:03;96495.31;;;5.31;100.00
4598;BME280;62772;48.646;8.906;2023-04-08T03:36:04;96500.72;;;5.00;100.00
4598;BME280;62772;48.646;8.906;2023-04-08T03:41:05;96504.47;;;4.78;100.00
4598;BME280;62772;48.646;8.906;2023-04-08T03:46:06;96506.56;;;4.97;100.00
4598;BME280;62772;48.646;8.906;2023-04-08T03:51:06;96501.31;;;4.76;100.00
4598;BME280;62772;48.646;8.906;2023-04-08T03:56:07;96498.13;;;4.79;100.00
4598;BME280;62772;48.646;8.906;2023-04-08T04:01:07;96502.09;;;4.71;100.00
4598;BME280;62772;48.646;8.906;2023-04-08T04:06:08;96498.66;;;4.76;100.00
4598;BME280;62772;48.646;8.906;2023-04-08T04:11:09;96494.38;;;5.06;100.00
4598;BME280;62772;48.646;8.906;2023-04-08T04:16:09;96502.78;;;5.23;100.00
4598;BME280;62772;48.646;8.906;2023-04-08T04:21:10;96511.03;;;5.06;100.00
4598;BME280;62772;48.646;8.906;2023-04-08T04:26:11;96512.63;;;5.02;100.00
4598;BME280;62772;48.646;8.906;2023-04-08T04:31:22;96513.06;;;5.30;100.00
4598;BME280;62772;48.646;8.906;2023-04-08T04:36:23;96516.59;;;4.95;100.00
4598;BME280;62772;48.646;8.906;2023-04-08T04:41:23;96518.47;;;5.04;100.00
4598;BME280;62772;48.646;8.906;2023-04-08T04:46:23;96526.34;;;5.25;100.00
4598;BME280;62772;48.646;8.906;2023-04-08T04:51:24;96524.19;;;5.32;100.00
4598;BME280;62772;48.646;8.906;2023-04-08T04:56:25;96524.63;;;5.60;100.00
4598;BME280;62772;48.646;8.906;2023-04-08T05:01:26;96528.53;;;5.68;100.00
4598;BME280;62772;48.646;8.906;2023-04-08T05:06:28;96532.22;;;5.06;100.00
4598;BME280;62772;48.646;8.906;2023-04-08T05:11:28;96532.13;;;5.32;100.00
4598;BME280;62772;48.646;8.906;2023-04-08T05:16:28;96546.19;;;5.22;100.00
4598;BME280;62772;48.646;8.906;2023-04-08T05:21:29;96543.53;;;5.27;100.00
4598;BME280;62772;48.646;8.906;2023-04-08T05:26:30;96548.88;;;5.07;100.00
4598;BME280;62772;48.646;8.906;2023-04-08T05:31:30;96554.47;;;4.85;100.00
4598;BME280;62772;48.646;8.906;2023-04-08T05:36:31;96550.00;;;4.70;100.00
4598;BME280;62772;48.646;8.906;2023-04-08T05:41:31;96560.31;;;4.71;100.00
4598;BME280;62772;48.646;8.906;2023-04-08T05:46:32;96557.38;;;4.78;100.00
4598;BME280;62772;48.646;8.906;2023-04-08T05:51:32;96559.50;;;4.92;100.00
4598;BME280;62772;48.646;8.906;2023-04-08T05:56:33;96564.78;;;4.86;100.00
4598;BME280;62772;48.646;8.906;2023-04-08T06:01:34;96566.66;;;4.86;100.00
4598;BME280;62772;48.646;8.906;2023-04-08T06:06:36;96574.28;;;5.13;100.00
4598;BME280;62772;48.646;8.906;2023-04-08T06:11:37;96579.75;;;5.48;100.00
4598;BME280;62772;48.646;8.906;2023-04-08T06:16:38;96586.44;;;5.24;100.00
4598;BME280;62772;48.646;8.906;2023-04-08T06:21:38;96577.66;;;5.44;100.00
4598;BME280;62772;48.646;8.906;2023-04-08T06:26:39;96588.31;;;5.14;100.00
4598;BME280;62772;48.646;8.906;2023-04-08T06:31:39;96585.13;;;5.17;100.00
4598;BME280;62772;48.646;8.906;2023-04-08T06:36:40;96591.50;;;5.16;100.00
4598;BME280;62772;48.646;8.906;2023-04-08T06:41:41;96587.16;;;5.51;100.00
4598;BME280;62772;48.646;8.906;2023-04-08T06:46:58;96598.09;;;5.18;100.00
4598;BME280;62772;48.646;8.906;2023-04-08T06:51:58;96602.09;;;5.16;100.00
4598;BME280;62772;48.646;8.906;2023-04-08T06:56:59;96605.25;;;5.13;100.00
4598;BME280;62772;48.646;8.906;2023-04-08T07:01:59;96609.50;;;5.19;100.00
4598;BME280;62772;48.646;8.906;2023-04-08T07:07:00;96608.66;;;5.39;100.00
4598;BME280;62772;48.646;8.906;2023-04-08T07:12:01;96608.41;;;5.30;100.00
4598;BME280;62772;48.646;8.906;2023-04-08T07:17:03;96616.84;;;5.48;100.00
4598;BME280;62772;48.646;8.906;2023-04-08T07:22:03;96609.41;;;5.60;100.00
4598;BME280;62772;48.646;8.906;2023-04-08T07:27:04;96625.53;;;5.63;100.00
4598;BME280;62772;48.646;8.906;2023-04-08T07:32:04;96632.09;;;5.81;100.00
4598;BME280;62772;48.646;8.906;2023-04-08T07:37:06;96633.94;;;5.86;100.00
4598;BME280;62772;48.646;8.906;2023-04-08T07:42:06;96641.31;;;5.94;100.00
4598;BME280;62772;48.646;8.906;2023-04-08T07:47:07;96648.50;;;5.94;100.00
4598;BME280;62772;48.646;8.906;2023-04-08T07:52:08;96641.09;;;5.86;100.00
4598;BME280;62772;48.646;8.906;2023-04-08T07:57:08;96648.75;;;6.03;100.00
4598;BME280;62772;48.646;8.906;2023-04-08T08:02:09;96649.03;;;5.91;100.00
4598;BME280;62772;48.646;8.906;2023-04-08T08:07:10;96658.31;;;5.93;100.00
4598;BME280;62772;48.646;8.906;2023-04-08T08:12:10;96650.41;;;5.78;100.00
4598;BME280;62772;48.646;8.906;2023-04-08T08:17:11;96650.78;;;6.21;100.00
4598;BME280;62772;48.646;8.906;2023-04-08T08:22:12;96653.94;;;6.28;100.00
4598;BME280;62772;48.646;8.906;2023-04-08T08:27:12;96658.41;;;6.33;100.00
4598;BME280;62772;48.646;8.906;2023-04-08T08:32:13;96659.03;;;6.14;100.00
4598;BME280;62772;48.646;8.906;2023-04-08T08:37:13;96669.88;;;6.23;100.00
4598;BME280;62772;48.646;8.906;2023-04-08T08:42:32;96668.91;;;6.59;100.00
4598;BME280;62772;48.646;8.906;2023-04-08T08:47:33;96673.03;;;6.75;100.00
4598;BME280;62772;48.646;8.906;2023-04-08T08:52:33;96670.59;;;6.79;100.00
4598;BME280;62772;48.646;8.906;2023-04-08T08:57:34;96679.50;;;6.59;100.00
4598;BME280;62772;48.646;8.906;2023-04-08T09:02:34;96681.31;;;6.68;100.00
4598;BME280;62772;48.646;8.906;2023-04-08T09:07:36;96684.47;;;7.10;100.00
4598;BME280;62772;48.646;8.906;2023-04-08T09:12:52;96688.25;;;6.99;100.00
4598;BME280;62772;48.646;8.906;2023-04-08T09:17:53;96684.22;;;7.06;100.00
4598;BME280;62772;48.646;8.906;2023-04-08T09:22:58;96694.81;;;7.12;100.00
4598;BME280;62772;48.646;8.906;2023-04-08T09:27:59;96688.88;;;7.20;100.00
4598;BME280;62772;48.646;8.906;2023-04-08T09:33:01;96685.06;;;6.97;100.00
4598;BME280;62772;48.646;8.906;2023-04-08T09:38:06;96699.25;;;7.21;100.00
4598;BME280;62772;48.646;8.906;2023-04-08T09:43:08;96700.13;;;7.41;100.00
4598;BME280;62772;48.646;8.906;2023-04-08T09:48:09;96696.28;;;7.57;100.00
4598;BME280;62772;48.646;8.906;2023-04-08T09:53:13;96692.78;;;7.62;100.00
4598;BME280;62772;48.646;8.906;2023-04-08T09:58:21;96688.59;;;7.51;100.00
4598;BME280;62772;48.646;8.906;2023-04-08T10:03:29;96698.13;;;7.86;100.00
4598;BME280;62772;48.646;8.906;2023-04-08T10:08:33;96688.66;;;7.99;100.00
4598;BME280;62772;48.646;8.906;2023-04-08T10:13:34;96698.34;;;7.90;100.00
4598;BME280;62772;48.646;8.906;2023-04-08T10:18:35;96694.91;;;8.32;100.00
4598;BME280;62772;48.646;8.906;2023-04-08T10:23:54;96694.03;;;8.18;100.00
4598;BME280;62772;48.646;8.906;2023-04-08T10:28:55;96695.97;;;8.31;100.00
4598;BME280;62772;48.646;8.906;2023-04-08T10:33:55;96688.84;;;8.51;100.00
4598;BME280;62772;48.646;8.906;2023-04-08T10:38:57;96691.00;;;8.49;100.00
4598;BME280;62772;48.646;8.906;2023-04-08T10:43:57;96696.50;;;8.58;100.00
4598;BME280;62772;48.646;8.906;2023-04-08T10:48:59;96687.34;;;8.64;100.00
4598;BME280;62772;48.646;8.906;2023-04-08T10:54:12;96690.94;;;8.30;98.76
4598;BME280;62772;48.646;8.906;2023-04-08T10:59:14;96695.91;;;8.36;100.00
4598;BME280;62772;48.646;8.906;2023-04-08T11:04:16;96689.50;;;8.62;96.18
4598;BME280;62772;48.646;8.906;2023-04-08T11:09:22;96687.66;;;8.62;100.00
4598;BME280;62772;48.646;8.906;2023-04-08T11:14:24;96694.81;;;8.18;99.05
4598;BME280;62772;48.646;8.906;2023-04-08T11:19:24;96683.31;;;8.47;98.50
4598;BME280;62772;48.646;8.906;2023-04-08T11:24:25;96684.53;;;8.74;100.00
4598;BME280;62772;48.646;8.906;2023-04-08T11:29:26;96687.34;;;8.40;100.00
4598;BME280;62772;48.646;8.906;2023-04-08T11:34:27;96682.59;;;8.36;100.00
4598;BME280;62772;48.646;8.906;2023-04-08T11:39:27;96691.69;;;8.35;96.19
4598;BME280;62772;48.646;8.906;2023-04-08T11:44:31;96685.75;;;8.44;90.33
4598;BME280;62772;48.646;8.906;2023-04-08T11:49:46;96691.44;;;8.56;93.15
4598;BME280;62772;48.646;8.906;2023-04-08T11:54:47;96687.56;;;8.48;93.10
4598;BME280;62772;48.646;8.906;2023-04-08T11:59:47;96694.47;;;8.25;92.12
4598;BME280;62772;48.646;8.906;2023-04-08T12:04:48;96689.22;;;8.20;93.18
4598;BME280;62772;48.646;8.906;2023-04-08T12:09:49;96692.59;;;8.26;98.50
4598;BME280;62772;48.646;8.906;2023-04-08T12:14:49;96698.84;;;8.35;100.00
4598;BME280;62772;48.646;8.906;2023-04-08T12:19:50;96694.63;;;8.34;98.19
4598;BME280;62772;48.646;8.906;2023-04-08T12:24:50;96693.41;;;8.26;100.00
4598;BME280;62772;48.646;8.906;2023-04-08T12:29:51;96697.63;;;8.51;95.54
4598;BME280;62772;48.646;8.906;2023-04-08T12:34:52;96691.31;;;8.23;98.86
4598;BME280;62772;48.646;8.906;2023-04-08T12:39:52;96699.16;;;8.09;88.52
4598;BME280;62772;48.646;8.906;2023-04-08T12:44:53;96700.84;;;8.05;91.12
4598;BME280;62772;48.646;8.906;2023-04-08T12:49:53;96691.78;;;8.49;89.86
4598;BME280;62772;48.646;8.906;2023-04-08T12:54:54;96697.19;;;8.44;89.74
4598;BME280;62772;48.646;8.906;2023-04-08T12:59:55;96695.69;;;8.33;88.86
4598;BME280;62772;48.646;8.906;2023-04-08T13:04:55;96690.63;;;8.56;84.30
4598;BME280;62772;48.646;8.906;2023-04-08T13:09:56;96692.16;;;8.18;82.58
4598;BME280;62772;48.646;8.906;2023-04-08T13:14:56;96694.25;;;8.22;84.13
4598;BME280;62772;48.646;8.906;2023-04-08T13:19:57;96692.31;;;8.51;84.85
4598;BME280;62772;48.646;8.906;2023-04-08T13:24:58;96685.56;;;8.35;85.81
4598;BME280;62772;48.646;8.906;2023-04-08T13:29:58;96678.50;;;8.25;83.64
4598;BME280;62772;48.646;8.906;2023-04-08T13:34:59;96681.41;;;8.29;87.15
4598;BME280;62772;48.646;8.906;2023-04-08T13:39:59;96677.19;;;8.47;85.23
4598;BME280;62772;48.646;8.906;2023-04-08T13:45:00;96672.00;;;8.75;85.93
4598;BME280;62772;48.646;8.906;2023-04-08T13:50:01;96683.88;;;8.63;81.66
4598;BME280;62772;48.646;8.906;2023-04-08T13:55:02;96685.97;;;8.47;84.96
4598;BME280;62772;48.646;8.906;2023-04-08T14:00:03;96689.22;;;8.63;72.62
4598;BME280;62772;48.646;8.906;2023-04-08T14:05:10;96688.13;;;8.64;70.08
4598;BME280;62772;48.646;8.906;2023-04-08T14:10:10;96687.34;;;8.64;65.29
4598;BME280;62772;48.646;8.906;2023-04-08T14:15:11;96684.47;;;8.60;66.39
4598;BME280;62772;48.646;8.906;2023-04-08T14:20:11;96684.31;;;8.51;70.05
4598;BME280;62772;48.646;8.906;2023-04-08T14:25:12;96682.44;;;8.90;84.82
4598;BME280;62772;48.646;8.906;2023-04-08T14:30:12;96685.53;;;8.97;87.14
4598;BME280;62772;48.646;8.906;2023-04-08T14:35:13;96680.94;;;8.84;92.40
4598;BME280;62772;48.646;8.906;2023-04-08T14:40:13;96687.03;;;9.03;99.60
4598;BME280;62772;48.646;8.906;2023-04-08T14:45:14;96688.41;;;9.01;100.00
4598;BME280;62772;48.646;8.906;2023-04-08T14:50:15;96683.22;;;8.90;94.80
4598;BME280;62772;48.646;8.906;2023-04-08T14:55:15;96685.66;;;9.06;93.21
4598;BME280;62772;48.646;8.906;2023-04-08T15:00:16;96688.53;;;8.90;96.56
4598;BME280;62772;48.646;8.906;2023-04-08T15:05:17;96690.22;;;8.86;99.62
4598;BME280;62772;48.646;8.906;2023-04-08T15:10:17;96698.88;;;8.78;100.00
4598;BME280;62772;48.646;8.906;2023-04-08T15:15:17;96691.09;;;8.82;90.02
4598;BME280;62772;48.646;8.906;2023-04-08T15:20:18;96690.78;;;9.02;95.65
4598;BME280;62772;48.646;8.906;2023-04-08T15:25:19;96695.00;;;9.03;99.31
4598;BME280;62772;48.646;8.906;2023-04-08T15:30:19;96702.41;;;9.25;91.38
4598;BME280;62772;48.646;8.906;2023-04-08T15:35:23;96706.03;;;9.16;86.63
4598;BME280;62772;48.646;8.906;2023-04-08T15:40:23;96694.72;;;9.05;85.33
4598;BME280;62772;48.646;8.906;2023-04-08T15:45:25;96691.63;;;9.17;82.83
4598;BME280;62772;48.646;8.906;2023-04-08T15:50:28;96702.28;;;9.17;88.48
4598;BME280;62772;48.646;8.906;2023-04-08T15:55:29;96703.16;;;9.12;100.00
4598;BME280;62772;48.646;8.906;2023-04-08T16:00:30;96720.22;;;8.54;100.00
4598;BME280;62772;48.646;8.906;2023-04-08T16:05:31;96721.31;;;8.72;100.00
4598;BME280;62772;48.646;8.906;2023-04-08T16:10:33;96729.88;;;8.88;100.00
4598;BME280;62772;48.646;8.906;2023-04-08T16:15:34;96730.53;;;8.80;100.00
4598;BME280;62772;48.646;8.906;2023-04-08T16:20:37;96737.41;;;8.62;100.00
4598;BME280;62772;48.646;8.906;2023-04-08T16:25:38;96740.66;;;8.78;100.00
4598;BME280;62772;48.646;8.906;2023-04-08T16:30:39;96738.66;;;8.69;100.00
4598;BME280;62772;48.646;8.906;2023-04-08T16:35:42;96747.78;;;8.63;100.00
4598;BME280;62772;48.646;8.906;2023-04-08T16:40:43;96752.59;;;8.61;100.00
4598;BME280;62772;48.646;8.906;2023-04-08T16:45:43;96756.47;;;8.50;100.00
4598;BME280;62772;48.646;8.906;2023-04-08T16:50:44;96756.19;;;8.51;100.00
4598;BME280;62772;48.646;8.906;2023-04-08T16:55:44;96767.97;;;8.45;100.00
4598;BME280;62772;48.646;8.906;2023-04-08T17:00:45;96774.63;;;8.43;100.00
4598;BME280;62772;48.646;8.906;2023-04-08T17:05:48;96774.75;;;8.32;100.00
4598;BME280;62772;48.646;8.906;2023-04-08T17:10:48;96770.91;;;8.20;100.00
4598;BME280;62772;48.646;8.906;2023-04-08T17:15:49;96775.13;;;8.21;100.00
4598;BME280;62772;48.646;8.906;2023-04-08T17:20:49;96782.16;;;8.11;100.00
4598;BME280;62772;48.646;8.906;2023-04-08T17:25:50;96778.97;;;8.33;100.00
4598;BME280;62772;48.646;8.906;2023-04-08T17:30:50;96781.97;;;8.03;100.00
4598;BME280;62772;48.646;8.906;2023-04-08T17:35:51;96782.50;;;8.29;100.00
4598;BME280;62772;48.646;8.906;2023-04-08T17:40:52;96789.69;;;8.28;100.00
4598;BME280;62772;48.646;8.906;2023-04-08T17:45:52;96791.00;;;8.07;100.00
4598;BME280;62772;48.646;8.906;2023-04-08T17:51:04;96802.00;;;7.95;100.00
4598;BME280;62772;48.646;8.906;2023-04-08T17:56:04;96808.91;;;7.96;100.00
4598;BME280;62772;48.646;8.906;2023-04-08T18:01:05;96813.91;;;7.73;100.00
4598;BME280;62772;48.646;8.906;2023-04-08T18:06:08;96829.31;;;7.32;100.00
4598;BME280;62772;48.646;8.906;2023-04-08T18:11:09;96825.97;;;7.16;100.00
4598;BME280;62772;48.646;8.906;2023-04-08T18:16:17;96821.47;;;7.16;100.00
4598;BME280;62772;48.646;8.906;2023-04-08T18:21:18;96830.34;;;7.41;100.00
4598;BME280;62772;48.646;8.906;2023-04-08T18:26:18;96838.38;;;7.70;100.00
4598;BME280;62772;48.646;8.906;2023-04-08T18:31:19;96843.31;;;7.82;100.00
4598;BME280;62772;48.646;8.906;2023-04-08T18:36:19;96849.88;;;7.95;100.00
4598;BME280;62772;48.646;8.906;2023-04-08T18:41:21;96858.88;;;7.99;100.00
4598;BME280;62772;48.646;8.906;2023-04-08T18:46:24;96857.59;;;7.62;100.00
4598;BME280;62772;48.646;8.906;2023-04-08T18:51:25;96857.41;;;7.48;100.00
4598;BME280;62772;48.646;8.906;2023-04-08T18:56:25;96863.88;;;7.37;100.00
4598;BME280;62772;48.646;8.906;2023-04-08T19:01:26;96865.47;;;7.72;100.00
4598;BME280;62772;48.646;8.906;2023-04-08T19:06:29;96884.00;;;7.82;100.00
4598;BME280;62772;48.646;8.906;2023-04-08T19:11:29;96883.13;;;7.13;100.00
4598;BME280;62772;48.646;8.906;2023-04-08T19:16:30;96879.38;;;7.14;100.00
4598;BME280;62772;48.646;8.906;2023-04-08T19:21:30;96890.44;;;7.32;100.00
4598;BME280;62772;48.646;8.906;2023-04-08T19:26:32;96894.38;;;7.39;100.00
4598;BME280;62772;48.646;8.906;2023-04-08T19:31:32;96900.66;;;7.59;100.00
4598;BME280;62772;48.646;8.906;2023-04-08T19:36:33;96907.06;;;6.98;100.00
4598;BME280;62772;48.646;8.906;2023-04-08T19:41:33;96897.97;;;7.19;100.00
4598;BME280;62772;48.646;8.906;2023-04-08T19:46:34;96905.22;;;7.53;100.00
4598;BME280;62772;48.646;8.906;2023-04-08T19:51:34;96910.22;;;7.60;100.00
4598;BME280;62772;48.646;8.906;2023-04-08T19:56:35;96906.19;;;7.18;100.00
4598;BME280;62772;48.646;8.906;2023-04-08T20:01:36;96910.31;;;7.44;100.00
4598;BME280;62772;48.646;8.906;2023-04-08T20:06:38;96914.44;;;7.66;100.00
4598;BME280;62772;48.646;8.906;2023-04-08T20:11:39;96914.06;;;7.83;100.00
4598;BME280;62772;48.646;8.906;2023-04-08T20:16:40;96911.06;;;7.50;100.00
4598;BME280;62772;48.646;8.906;2023-04-08T20:21:41;96908.81;;;7.73;100.00
4598;BME280;62772;48.646;8.906;2023-04-08T20:26:42;96914.44;;;7.66;100.00
4598;BME280;62772;48.646;8.906;2023-04-08T20:31:43;96916.31;;;7.66;100.00
4598;BME280;62772;48.646;8.906;2023-04-08T20:36:46;96915.81;;;7.58;100.00
4598;BME280;62772;48.646;8.906;2023-04-08T20:41:46;96911.53;;;7.62;100.00
4598;BME280;62772;48.646;8.906;2023-04-08T20:46:47;96909.69;;;7.58;100.00
4598;BME280;62772;48.646;8.906;2023-04-08T20:51:48;96917.44;;;7.54;100.00
4598;BME280;62772;48.646;8.906;2023-04-08T20:56:48;96917.44;;;7.49;100.00
4598;BME280;62772;48.646;8.906;2023-04-08T21:01:51;96908.22;;;7.36;100.00
4598;BME280;62772;48.646;8.906;2023-04-08T21:06:52;96904.66;;;7.56;100.00
4598;BME280;62772;48.646;8.906;2023-04-08T21:11:53;96916.13;;;7.52;100.00
4598;BME280;62772;48.646;8.906;2023-04-08T21:16:53;96903.22;;;7.30;100.00
4598;BME280;62772;48.646;8.906;2023-04-08T21:21:54;96907.22;;;7.27;100.00
4598;BME280;62772;48.646;8.906;2023-04-08T21:26:54;96905.28;;;7.43;100.00
4598;BME280;62772;48.646;8.906;2023-04-08T21:31:55;96901.06;;;7.32;100.00
4598;BME280;62772;48.646;8.906;2023-04-08T21:36:56;96902.50;;;7.14;100.00
4598;BME280;62772;48.646;8.906;2023-04-08T21:41:56;96903.56;;;7.13;100.00
4598;BME280;62772;48.646;8.906;2023-04-08T21:46:57;96896.66;;;7.12;100.00
4598;BME280;62772;48.646;8.906;2023-04-08T21:51:57;96903.44;;;7.33;100.00
4598;BME280;62772;48.646;8.906;2023-04-08T21:56:57;96902.81;;;7.02;100.00
4598;BME280;62772;48.646;8.906;2023-04-08T22:01:58;96906.78;;;7.04;100.00
4598;BME280;62772;48.646;8.906;2023-04-08T22:06:59;96916.63;;;6.99;100.00
4598;BME280;62772;48.646;8.906;2023-04-08T22:11:59;96909.22;;;6.85;100.00
4598;BME280;62772;48.646;8.906;2023-04-08T22:17:01;96908.16;;;6.92;100.00
4598;BME280;62772;48.646;8.906;2023-04-08T22:22:01;96907.41;;;6.86;100.00
4598;BME280;62772;48.646;8.906;2023-04-08T22:27:02;96906.72;;;6.18;100.00
4598;BME280;62772;48.646;8.906;2023-04-08T22:32:02;96904.59;;;5.74;100.00
4598;BME280;62772;48.646;8.906;2023-04-08T22:37:03;96904.78;;;5.47;100.00
4598;BME280;62772;48.646;8.906;2023-04-08T22:42:03;96891.34;;;4.80;100.00
4598;BME280;62772;48.646;8.906;2023-04-08T22:47:04;96894.22;;;4.26;100.00
4598;BME280;62772;48.646;8.906;2023-04-08T22:52:04;96892.09;;;4.23;100.00
4598;BME280;62772;48.646;8.906;2023-04-08T22:57:04;96890.50;;;3.57;100.00
4598;BME280;62772;48.646;8.906;2023-04-08T23:02:05;96893.00;;;3.41;100.00
4598;BME280;62772;48.646;8.906;2023-04-08T23:07:06;96898.72;;;3.33;100.00
4598;BME280;62772;48.646;8.906;2023-04-08T23:12:06;96892.06;;;3.25;100.00
4598;BME280;62772;48.646;8.906;2023-04-08T23:17:06;96897.91;;;3.05;100.00
4598;BME280;62772;48.646;8.906;2023-04-08T23:22:07;96895.81;;;3.07;100.00
4598;BME280;62772;48.646;8.906;2023-04-08T23:27:07;96894.56;;;2.88;100.00
4598;BME280;62772;48.646;8.906;2023-04-08T23:32:08;96894.81;;;2.86;100.00
4598;BME280;62772;48.646;8.906;2023-04-08T23:37:08;96896.03;;;3.01;100.00
4598;BME280;62772;48.646;8.906;2023-04-08T23:42:09;96901.53;;;2.77;100.00
4598;BME280;62772;48.646;8.906;2023-04-08T23:47:09;96879.31;;;2.73;100.00
4598;BME280;62772;48.646;8.906;2023-04-08T23:52:10;96888.41;;;2.82;100.00
4598;BME280;62772;48.646;8.906;2023-04-08T23:57:10;96893.53;;;2.72;100.00
